Time;durP1;ratioP1;P1;durP2;ratioP2;P2;SDS_P1;SDS_P2;PMS_P1;PMS_P2;Temp;Humidity;BMP_temperature;BMP_pressure;BME280_temperature;BME280_humidity;BME280_pressure;Samples;Min_cycle;Max_cycle;Signal;HPM_P1;HPM_P2
2023/05/06 10:36:35;;;;;;;15.10;11.40;;;;;;;13.34;73.62;98699.30;220163;1302;2969211;-75
2023/05/06 10:41:39;;;;;;;14.40;10.80;;;;;;;13.19;74.24;98684.39;225306;1289;24402;-74
2023/05/06 10:47:01;;;;;;;14.00;9.60;;;;;;;13.07;75.00;98672.50;225154;1284;24422;-75
2023/05/06 10:52:17;;;;;;;11.10;9.40;;;;;;;12.94;75.26;98670.56;225386;1285;24230;-77
2023/05/06 10:57:25;;;;;;;13.30;11.00;;;;;;;12.84;75.92;98678.45;226002;1292;22096;-77
2023/05/06 11:02:29;;;;;;;12.10;10.70;;;;;;;12.78;76.20;98678.60;224366;1278;22577;-77
2023/05/06 11:07:38;;;;;;;15.50;12.20;;;;;;;12.72;76.70;98674.63;223762;1290;22554;-76
2023/05/06 11:12:52;;;;;;;14.60;12.50;;;;;;;12.68;77.02;98673.52;224167;1290;22573;-77
2023/05/06 11:17:58;;;;;;;18.60;13.90;;;;;;;12.62;77.37;98673.49;224440;1292;22553;-79
2023/05/06 11:23:01;;;;;;;20.00;15.10;;;;;;;12.56;77.74;98682.65;224531;1290;22606;-80
2023/05/06 11:28:11;;;;;;;21.20;17.00;;;;;;;12.51;78.10;98685.60;224146;1292;22556;-79
2023/05/06 11:33:18;;;;;;;20.80;16.80;;;;;;;12.46;78.63;98684.27;223917;1292;22613;-81
2023/05/06 11:38:20;;;;;;;19.50;16.50;;;;;;;12.40;78.95;98685.85;224256;1289;22555;-78
2023/05/06 11:43:23;;;;;;;21.00;18.60;;;;;;;12.32;79.25;98683.39;224569;1292;22540;-80
2023/05/06 11:48:27;;;;;;;24.20;19.90;;;;;;;12.31;79.59;98679.52;224480;1291;23661;-79
2023/05/06 11:53:29;;;;;;;22.80;19.30;;;;;;;12.31;79.86;98685.91;224518;1291;22558;-80
2023/05/06 11:58:32;;;;;;;26.30;21.10;;;;;;;12.27;80.15;98694.84;224407;1292;22537;-78
2023/05/06 12:03:35;;;;;;;23.70;20.60;;;;;;;12.26;80.22;98705.80;225260;1284;22589;-78
2023/05/06 12:08:47;;;;;;;26.40;22.60;;;;;;;12.21;80.42;98706.92;225332;1275;22544;-78
2023/05/06 12:13:49;;;;;;;27.50;23.20;;;;;;;12.20;80.75;98709.80;225255;1283;22537;-78
2023/05/06 12:18:53;;;;;;;29.90;25.40;;;;;;;12.14;80.86;98718.36;225197;1283;22551;-78
2023/05/06 12:24:00;;;;;;;29.60;24.00;;;;;;;12.18;81.31;98720.89;225263;1281;22557;-77
2023/05/06 12:29:09;;;;;;;25.80;22.20;;;;;;;12.22;81.53;98731.56;225234;1283;22547;-78
2023/05/06 12:34:17;;;;;;;27.00;22.00;;;;;;;12.19;81.41;98728.34;225272;1284;22536;-77
2023/05/06 12:39:19;;;;;;;24.10;19.60;;;;;;;12.18;81.57;98728.78;225288;1282;22621;-78
2023/05/06 12:44:33;;;;;;;25.00;20.10;;;;;;;12.19;81.80;98735.27;225312;1283;23601;-78
2023/05/06 12:49:56;;;;;;;26.80;22.70;;;;;;;12.24;81.94;98736.84;225318;1281;22538;-79
2023/05/06 12:55:06;;;;;;;26.20;21.60;;;;;;;12.29;81.97;98739.75;225241;1284;22558;-78
2023/05/06 13:00:13;;;;;;;25.10;21.30;;;;;;;12.33;81.97;98734.34;225367;1281;22559;-79
2023/05/06 13:05:19;;;;;;;28.40;23.80;;;;;;;12.47;82.00;98728.55;225285;1281;23072;-79
2023/05/06 13:10:21;;;;;;;27.70;23.00;;;;;;;12.74;82.13;98721.73;225343;1281;22553;-77
2023/05/06 13:15:24;;;;;;;31.60;24.80;;;;;;;13.12;82.10;98726.55;225267;1283;22552;-79
2023/05/06 13:20:29;;;;;;;30.40;24.60;;;;;;;13.28;81.73;98733.11;225278;1284;22572;-79
2023/05/06 13:25:31;;;;;;;30.30;25.70;;;;;;;13.46;81.55;98728.88;225224;1284;22539;-81
2023/05/06 13:30:34;;;;;;;28.30;23.60;;;;;;;13.73;81.54;98731.86;225270;1281;22560;-77
2023/05/06 13:35:36;;;;;;;28.80;23.90;;;;;;;13.91;81.03;98732.95;225262;1284;22554;-78
2023/05/06 13:40:38;;;;;;;27.70;24.70;;;;;;;14.09;80.71;98733.81;225282;1281;22549;-79
2023/05/06 13:45:41;;;;;;;25.50;22.70;;;;;;;14.27;80.89;98730.41;225135;1284;24237;-80
2023/05/06 13:50:46;;;;;;;22.80;20.40;;;;;;;14.48;80.69;98737.80;225346;1284;25390;-80
2023/05/06 13:55:48;;;;;;;23.90;21.30;;;;;;;14.64;80.10;98735.98;225323;1281;22713;-79
2023/05/06 14:00:50;;;;;;;23.40;20.90;;;;;;;14.78;79.89;98737.11;225303;1272;22558;-79
2023/05/06 14:05:52;;;;;;;24.90;22.20;;;;;;;14.89;79.28;98738.91;225259;1284;22547;-79
2023/05/06 14:10:55;;;;;;;24.00;20.90;;;;;;;15.01;78.91;98731.60;225239;1284;22567;-79
2023/05/06 14:16:00;;;;;;;25.00;21.50;;;;;;;15.19;78.61;98733.34;225319;1281;22547;-79
2023/05/06 14:21:03;;;;;;;24.90;22.30;;;;;;;15.56;78.26;98729.11;225334;1281;22717;-78
2023/05/06 14:26:05;;;;;;;47.90;42.30;;;;;;;15.79;77.72;98721.15;225197;1281;22535;-80
2023/05/06 14:31:08;;;;;;;27.00;24.20;;;;;;;15.81;77.02;98720.36;225310;1284;22513;-79
2023/05/06 14:36:17;;;;;;;28.30;24.60;;;;;;;15.81;76.82;98716.21;225198;1284;22540;-78
2023/05/06 14:41:19;;;;;;;27.20;24.20;;;;;;;15.94;76.72;98709.91;225279;1281;22643;-79
2023/05/06 14:46:22;;;;;;;27.30;24.50;;;;;;;15.94;76.35;98707.56;225270;1281;22549;-78
2023/05/06 14:51:24;;;;;;;23.70;20.90;;;;;;;16.02;76.02;98706.95;225643;1278;22565;-78
2023/05/06 14:56:27;;;;;;;25.30;22.60;;;;;;;16.14;75.46;98705.46;225604;1281;22536;-79
2023/05/06 15:01:31;;;;;;;25.10;22.50;;;;;;;16.15;75.27;98714.48;225622;1279;24763;-79
2023/05/06 15:06:33;;;;;;;24.40;21.90;;;;;;;16.21;75.09;98718.52;225621;1281;22986;-80
2023/05/06 15:11:35;;;;;;;24.00;21.00;;;;;;;16.17;74.47;98720.80;225614;1278;22919;-78
2023/05/06 15:16:37;;;;;;;22.50;20.30;;;;;;;15.99;74.11;98727.59;225514;1281;22543;-77
2023/05/06 15:21:40;;;;;;;25.60;23.10;;;;;;;15.79;74.48;98730.90;225646;1281;23360;-78
2023/05/06 15:26:43;;;;;;;25.50;23.00;;;;;;;15.65;74.79;98738.61;225551;1281;22544;-78
2023/05/06 15:31:45;;;;;;;25.20;22.70;;;;;;;15.53;74.77;98739.26;225639;1279;22548;-79
2023/05/06 15:36:52;;;;;;;26.30;23.60;;;;;;;15.51;75.03;98733.11;225665;1281;23199;-78
2023/05/06 15:41:57;;;;;;;26.50;23.80;;;;;;;15.63;75.14;98734.17;225571;1280;22891;-79
2023/05/06 15:47:00;;;;;;;24.90;22.40;;;;;;;15.78;75.16;98734.19;225627;1281;22551;-77
2023/05/06 15:52:03;;;;;;;24.20;21.60;;;;;;;15.83;74.57;98734.30;225610;1281;22562;-77
2023/05/06 15:57:06;;;;;;;23.00;20.60;;;;;;;15.74;74.08;98738.18;225643;1281;22541;-79
2023/05/06 16:02:08;;;;;;;23.30;20.80;;;;;;;15.60;73.84;98737.59;225516;1281;22540;-77
2023/05/06 16:07:14;;;;;;;21.80;19.50;;;;;;;15.45;74.13;98734.23;225590;1281;22565;-78
2023/05/06 16:12:17;;;;;;;28.40;20.40;;;;;;;15.33;74.26;98737.50;225666;1275;26284;-80
2023/05/06 16:17:19;;;;;;;26.00;23.30;;;;;;;15.19;74.58;98746.85;225584;1279;23042;-77
2023/05/06 16:22:21;;;;;;;28.90;25.90;;;;;;;15.18;74.78;98747.50;225628;1280;22608;-79
2023/05/06 16:27:26;;;;;;;28.60;25.60;;;;;;;15.24;75.04;98757.29;225602;1281;25821;-77
2023/05/06 16:32:30;;;;;;;25.00;22.20;;;;;;;15.14;74.76;98761.96;225624;1279;22539;-79
2023/05/06 16:37:32;;;;;;;21.20;17.90;;;;;;;14.94;74.97;98768.46;225591;1281;22539;-77
2023/05/06 16:42:34;;;;;;;21.70;19.30;;;;;;;14.70;74.78;98764.66;225658;1278;22558;-78
2023/05/06 16:47:37;;;;;;;22.20;20.00;;;;;;;14.54;75.28;98763.63;225642;1281;22541;-78
2023/05/06 16:52:40;;;;;;;25.00;22.00;;;;;;;14.43;75.59;98762.20;225730;1276;22559;-78
2023/05/06 16:57:42;;;;;;;21.10;18.80;;;;;;;14.33;75.98;98773.89;225677;1281;25451;-78
2023/05/06 17:02:45;;;;;;;21.90;19.10;;;;;;;14.27;76.11;98777.83;225722;1259;24256;-78
2023/05/06 17:07:47;;;;;;;18.50;16.60;;;;;;;14.38;76.35;98774.41;225515;1280;22541;-77
2023/05/06 17:12:51;;;;;;;17.60;15.30;;;;;;;14.46;76.03;98762.80;225690;1281;22533;-77
2023/05/06 17:17:53;;;;;;;17.00;15.30;;;;;;;14.37;75.54;98762.52;225691;1281;22551;-78
2023/05/06 17:22:57;;;;;;;15.90;14.40;;;;;;;14.22;75.47;98763.96;225689;1281;22908;-77
2023/05/06 17:27:59;;;;;;;16.40;14.80;;;;;;;14.06;75.42;98763.67;225454;1281;22540;-77
2023/05/06 17:33:02;;;;;;;17.00;15.30;;;;;;;13.92;75.43;98762.62;225685;1279;22548;-76
2023/05/06 17:38:04;;;;;;;17.60;15.60;;;;;;;13.75;75.61;98765.20;225626;1280;22577;-76
2023/05/06 17:43:10;;;;;;;17.70;15.90;;;;;;;13.54;75.71;98767.63;225648;1281;22540;-77
2023/05/06 17:48:13;;;;;;;19.90;17.50;;;;;;;13.28;75.89;98763.90;225636;1281;22524;-78
2023/05/06 17:53:19;;;;;;;19.80;17.80;;;;;;;13.04;76.22;98766.85;225500;1281;25413;-77
2023/05/06 17:58:21;;;;;;;19.30;17.30;;;;;;;12.81;76.69;98774.92;225611;1279;22544;-77
2023/05/06 18:03:24;;;;;;;21.00;18.20;;;;;;;12.59;77.05;98773.20;225629;1276;22537;-76
2023/05/06 18:08:33;;;;;;;19.90;17.80;;;;;;;12.38;77.42;98787.14;225675;1281;22553;-78
2023/05/06 18:13:38;;;;;;;20.00;17.30;;;;;;;12.18;77.89;98799.02;225584;1281;23441;-76
2023/05/06 18:18:41;;;;;;;22.80;18.80;;;;;;;12.04;78.19;98802.42;225618;1281;22548;-77
2023/05/06 18:23:44;;;;;;;21.60;19.30;;;;;;;11.94;78.92;98811.00;225521;1281;25571;-77
2023/05/06 18:28:53;;;;;;;33.00;27.50;;;;;;;11.88;79.13;98822.73;225694;1281;22552;-78
2023/05/06 18:34:03;;;;;;;22.70;20.20;;;;;;;11.84;79.39;98825.98;225685;1281;22535;-77
2023/05/06 18:39:06;;;;;;;23.60;21.00;;;;;;;11.79;79.53;98830.94;225627;1281;25338;-76
2023/05/06 18:44:12;;;;;;;25.70;22.60;;;;;;;11.71;79.51;98839.36;225630;1281;22650;-77
2023/05/06 18:49:15;;;;;;;25.50;20.90;;;;;;;11.60;79.55;98844.34;225566;1281;22540;-78
2023/05/06 18:54:19;;;;;;;26.00;22.50;;;;;;;11.51;80.05;98847.59;225601;1279;24940;-77
2023/05/06 18:59:21;;;;;;;28.90;23.90;;;;;;;11.39;79.83;98842.98;225599;1279;25380;-78
2023/05/06 19:04:24;;;;;;;28.10;24.30;;;;;;;11.26;80.44;98854.70;225706;1281;22548;-77
2023/05/06 19:09:26;;;;;;;28.20;24.10;;;;;;;11.19;80.50;98861.20;225672;1279;23286;-76
2023/05/06 19:14:28;;;;;;;27.20;23.10;;;;;;;11.16;80.67;98862.71;225747;1280;22650;-77
2023/05/06 19:19:31;;;;;;;27.30;23.10;;;;;;;11.15;80.92;98861.75;225577;1280;22556;-77
2023/05/06 19:24:34;;;;;;;27.10;22.10;;;;;;;11.13;80.98;98860.89;225544;1281;22584;-76
2023/05/06 19:29:39;;;;;;;24.10;21.60;;;;;;;11.14;80.96;98864.67;225674;1259;24370;-77
2023/05/06 19:34:41;;;;;;;25.30;21.10;;;;;;;11.16;81.12;98864.50;225640;1277;22555;-77
2023/05/06 19:39:45;;;;;;;23.80;21.20;;;;;;;11.19;81.07;98869.25;225753;1279;24244;-77
2023/05/06 19:44:48;;;;;;;21.50;19.10;;;;;;;11.21;81.55;98872.53;225684;1279;22558;-75
2023/05/06 19:49:51;;;;;;;21.20;18.70;;;;;;;11.22;81.45;98867.04;225758;1280;22542;-76
2023/05/06 19:54:55;;;;;;;22.50;18.50;;;;;;;11.23;81.46;98866.33;225616;1281;22547;-77
2023/05/06 19:59:58;;;;;;;19.20;17.00;;;;;;;11.24;81.27;98876.63;225783;1264;22633;-78
2023/05/06 20:05:05;;;;;;;20.50;18.20;;;;;;;11.23;81.39;98882.23;225579;1281;22546;-77
2023/05/06 20:10:09;;;;;;;20.30;17.80;;;;;;;11.22;81.38;98885.27;225602;1281;23002;-77
2023/05/06 20:15:11;;;;;;;20.50;18.30;;;;;;;11.22;81.32;98888.12;225522;1280;22568;-77
2023/05/06 20:20:14;;;;;;;21.60;18.60;;;;;;;11.22;81.16;98887.88;225673;1280;22615;-78
2023/05/06 20:25:17;;;;;;;21.10;18.80;;;;;;;11.21;81.29;98889.13;225773;1279;22684;-78
2023/05/06 20:30:19;;;;;;;20.90;18.40;;;;;;;11.18;81.26;98886.04;225719;1277;22679;-77
2023/05/06 20:35:22;;;;;;;21.90;19.60;;;;;;;11.12;81.56;98887.33;225583;1281;22538;-77
2023/05/06 20:40:25;;;;;;;21.50;19.30;;;;;;;11.07;81.52;98892.36;225557;1276;22561;-78
2023/05/06 20:45:31;;;;;;;22.60;19.20;;;;;;;11.01;81.30;98885.26;225611;1280;22538;-77
2023/05/06 20:50:36;;;;;;;21.70;19.10;;;;;;;10.97;81.73;98890.41;225531;1281;23161;-77
2023/05/06 20:55:43;;;;;;;21.40;19.20;;;;;;;10.94;81.61;98899.81;225715;1281;22566;-77
2023/05/06 21:00:49;;;;;;;22.00;18.60;;;;;;;10.94;81.82;98906.03;225694;1281;22538;-78
2023/05/06 21:05:51;;;;;;;21.50;19.00;;;;;;;10.94;81.82;98911.36;225629;1275;22545;-77
2023/05/06 21:10:57;;;;;;;21.30;18.40;;;;;;;10.94;81.70;98913.30;225760;1273;22540;-78
2023/05/06 21:16:04;;;;;;;22.20;19.70;;;;;;;10.94;81.60;98913.27;225619;1281;22548;-75
2023/05/06 21:21:06;;;;;;;20.10;17.80;;;;;;;10.96;81.85;98914.31;225643;1280;23255;-77
2023/05/06 21:26:11;;;;;;;19.90;17.50;;;;;;;10.94;82.06;98921.77;225785;1276;22570;-76
2023/05/06 21:31:18;;;;;;;18.90;16.80;;;;;;;10.91;81.80;98917.20;225716;1278;22547;-77
2023/05/06 21:36:20;;;;;;;19.50;17.00;;;;;;;10.91;81.65;98923.19;225702;1279;22547;-76
2023/05/06 21:41:24;;;;;;;18.70;16.70;;;;;;;10.89;81.74;98925.16;225791;1280;22540;-76
2023/05/06 21:46:30;;;;;;;17.40;15.60;;;;;;;10.87;81.73;98929.08;225632;1276;22578;-76
2023/05/06 21:51:35;;;;;;;17.00;14.90;;;;;;;10.82;81.60;98933.58;225690;1279;22548;-77
2023/05/06 21:56:38;;;;;;;17.00;15.20;;;;;;;10.77;81.78;98934.45;225615;1281;22536;-77
2023/05/06 22:01:40;;;;;;;18.60;16.00;;;;;;;10.74;81.82;98928.39;225617;1281;24254;-77
2023/05/06 22:06:42;;;;;;;19.30;16.80;;;;;;;10.74;82.02;98925.80;225742;1277;22540;-77
2023/05/06 22:11:46;;;;;;;19.20;16.00;;;;;;;10.73;82.14;98928.21;225798;1278;25396;-78
2023/05/06 22:16:49;;;;;;;18.70;16.30;;;;;;;10.67;82.07;98928.39;225739;1278;22570;-77
2023/05/06 22:21:55;;;;;;;19.30;17.10;;;;;;;10.60;82.20;98925.17;225595;1280;22547;-76
2023/05/06 22:26:57;;;;;;;19.80;17.70;;;;;;;10.55;82.38;98928.20;225688;1281;25489;-77
2023/05/06 22:32:00;;;;;;;20.30;18.00;;;;;;;10.53;82.60;98926.36;225670;1274;22536;-77
2023/05/06 22:37:08;;;;;;;20.30;17.40;;;;;;;10.51;82.89;98926.59;225203;1281;433756;-76
2023/05/06 22:42:10;;;;;;;22.80;19.20;;;;;;;10.48;82.66;98926.85;225702;1278;22532;-77
2023/05/06 22:47:13;;;;;;;23.80;20.00;;;;;;;10.45;82.54;98934.25;225603;1275;25342;-77
2023/05/06 22:52:19;;;;;;;20.30;18.20;;;;;;;10.43;82.93;98938.00;225672;1275;22593;-77
2023/05/06 22:57:31;;;;;;;20.50;18.40;;;;;;;10.41;82.88;98938.58;225611;1281;22547;-77
2023/05/06 23:02:34;;;;;;;19.50;17.40;;;;;;;10.33;82.50;98938.55;225657;1281;23024;-77
2023/05/06 23:07:37;;;;;;;19.40;17.40;;;;;;;10.22;82.85;98939.06;225751;1278;22562;-77
2023/05/06 23:12:41;;;;;;;20.80;18.20;;;;;;;10.15;82.72;98943.20;225546;1280;22557;-76
2023/05/06 23:17:44;;;;;;;19.90;17.30;;;;;;;10.12;83.05;98946.63;225566;1280;22551;-76
2023/05/06 23:22:49;;;;;;;20.30;18.10;;;;;;;10.09;83.05;98947.16;225661;1281;23043;-76
2023/05/06 23:27:55;;;;;;;21.70;18.70;;;;;;;10.07;82.79;98947.39;225711;1281;22543;-77
2023/05/06 23:33:03;;;;;;;20.50;18.30;;;;;;;10.03;83.39;98949.73;225663;1281;22540;-76
2023/05/06 23:38:11;;;;;;;20.10;16.60;;;;;;;10.00;83.14;98953.25;225712;1279;22569;-78
2023/05/06 23:43:17;;;;;;;17.50;14.70;;;;;;;9.97;83.19;98953.64;225773;1281;22528;-77
2023/05/06 23:48:21;;;;;;;16.50;14.10;;;;;;;9.93;83.06;98950.80;225814;1276;22540;-77
2023/05/06 23:53:23;;;;;;;14.20;12.70;;;;;;;9.89;83.30;98951.05;225792;1277;22543;-76
2023/05/06 23:58:34;;;;;;;14.80;13.20;;;;;;;9.85;83.59;98948.34;225769;1279;22553;-77
